Time;durP1;ratioP1;P1;durP2;ratioP2;P2;SDS_P1;SDS_P2;PMS_P1;PMS_P2;Temp;Humidity;BMP_temperature;BMP_pressure;BME280_temperature;BME280_humidity;BME280_pressure;Samples;Min_cycle;Max_cycle;Signal;HPM_P1;HPM_P2
2022/08/07 00:00:47;;;;;;;2.60;1.97;;;18.40;52.10;;;;;;5114326;28;20442;-71
2022/08/07 00:03:14;;;;;;;3.57;1.70;;;18.30;52.20;;;;;;5114189;28;20818;-70
2022/08/07 00:05:40;;;;;;;2.07;1.80;;;18.30;52.30;;;;;;5114213;28;20446;-70
2022/08/07 00:08:08;;;;;;;4.40;1.37;;;18.40;52.70;;;;;;5113832;28;20928;-70
2022/08/07 00:10:36;;;;;;;2.33;1.80;;;18.30;52.70;;;;;;5114039;28;20524;-70
2022/08/07 00:13:05;;;;;;;3.43;2.17;;;18.20;52.90;;;;;;5114018;28;20447;-70
2022/08/07 00:15:33;;;;;;;2.83;1.60;;;18.20;53.00;;;;;;5114076;28;20443;-70
2022/08/07 00:18:00;;;;;;;1.70;1.50;;;18.20;53.00;;;;;;5113825;28;20466;-70
2022/08/07 00:20:26;;;;;;;3.20;1.70;;;18.10;53.00;;;;;;5114002;28;20447;-70
2022/08/07 00:22:53;;;;;;;1.80;1.60;;;18.10;53.10;;;;;;5113655;28;20951;-70
2022/08/07 00:25:23;;;;;;;2.03;1.70;;;18.10;53.40;;;;;;5113919;28;20466;-70
2022/08/07 00:27:50;;;;;;;1.70;1.60;;;18.00;53.50;;;;;;5113671;28;20928;-70
2022/08/07 00:30:17;;;;;;;2.00;1.60;;;17.90;53.50;;;;;;5113828;28;20476;-70
2022/08/07 00:32:44;;;;;;;2.87;1.70;;;17.80;53.60;;;;;;5113556;28;20472;-70
2022/08/07 00:35:10;;;;;;;2.57;1.80;;;17.80;53.80;;;;;;5113796;28;20467;-70
2022/08/07 00:37:37;;;;;;;2.10;1.50;;;17.80;54.00;;;;;;5113839;28;20443;-70
2022/08/07 00:40:05;;;;;;;2.37;1.93;;;17.80;54.10;;;;;;5113814;28;20808;-70
2022/08/07 00:42:34;;;;;;;3.30;1.67;;;17.80;54.20;;;;;;5113773;28;20495;-70
2022/08/07 00:45:00;;;;;;;3.27;1.87;;;17.80;54.30;;;;;;5113703;28;20493;-70
2022/08/07 00:47:27;;;;;;;2.00;1.80;;;17.80;54.40;;;;;;5113595;28;20831;-70
2022/08/07 00:49:54;;;;;;;6.30;2.30;;;17.80;54.60;;;;;;5113974;28;20786;-70
2022/08/07 00:52:21;;;;;;;4.50;1.90;;;17.80;54.80;;;;;;5113755;28;20489;-70
2022/08/07 00:54:48;;;;;;;2.27;2.07;;;17.80;55.00;;;;;;5113955;28;20478;-70
2022/08/07 00:57:16;;;;;;;2.50;2.10;;;17.80;54.90;;;;;;5113960;28;20447;-70
2022/08/07 00:59:45;;;;;;;2.47;2.27;;;17.70;54.80;;;;;;5114680;28;20458;-70
2022/08/07 01:02:12;;;;;;;4.20;2.00;;;17.70;54.80;;;;;;5114660;28;20446;-70
2022/08/07 01:04:39;;;;;;;2.20;2.00;;;17.60;54.80;;;;;;5114831;28;20477;-70
2022/08/07 01:07:06;;;;;;;1.97;1.70;;;17.50;54.70;;;;;;5115540;28;20438;-70
2022/08/07 01:09:34;;;;;;;3.60;2.33;;;17.50;54.70;;;;;;5115731;28;20483;-70
2022/08/07 01:12:01;;;;;;;2.50;2.10;;;17.50;54.80;;;;;;5116171;28;20513;-70
2022/08/07 01:14:28;;;;;;;3.87;2.40;;;17.50;54.90;;;;;;5113632;28;20462;-70
2022/08/07 01:16:57;;;;;;;2.37;2.10;;;17.50;55.30;;;;;;5113544;28;20430;-69
2022/08/07 01:19:26;;;;;;;3.70;2.80;;;17.40;55.00;;;;;;5113504;28;20435;-70
2022/08/07 01:21:55;;;;;;;2.63;2.30;;;17.40;55.10;;;;;;5113513;28;20443;-70
2022/08/07 01:24:22;;;;;;;2.20;2.00;;;17.30;55.20;;;;;;5113759;28;20493;-70
2022/08/07 01:26:50;;;;;;;2.50;2.20;;;17.30;55.40;;;;;;5117536;28;20445;-70
2022/08/07 01:29:17;;;;;;;2.93;2.50;;;17.30;55.60;;;;;;5117366;28;20445;-70
2022/08/07 01:31:44;;;;;;;2.50;2.30;;;17.20;56.20;;;;;;5117078;28;20854;-70
2022/08/07 01:34:12;;;;;;;2.30;2.10;;;17.10;55.50;;;;;;5116730;28;20982;-70
2022/08/07 01:36:40;;;;;;;3.93;2.50;;;17.10;55.70;;;;;;5116605;28;20456;-70
2022/08/07 01:39:08;;;;;;;2.60;2.40;;;17.10;55.80;;;;;;5117348;28;20462;-70
2022/08/07 01:41:35;;;;;;;2.90;2.67;;;17.00;55.80;;;;;;5116632;28;20950;-70
2022/08/07 01:44:03;;;;;;;2.47;2.27;;;17.00;56.00;;;;;;5116845;28;20471;-71
2022/08/07 01:46:29;;;;;;;4.83;2.20;;;16.90;56.00;;;;;;5116485;28;20957;-71
2022/08/07 01:48:56;;;;;;;5.07;2.57;;;17.00;56.30;;;;;;5116461;28;20953;-71
2022/08/07 01:51:25;;;;;;;2.70;2.30;;;16.90;56.40;;;;;;5116586;28;20486;-71
2022/08/07 01:53:56;;;;;;;3.27;2.97;;;16.90;56.50;;;;;;5116557;28;20470;-71
2022/08/07 01:56:27;;;;;;;2.90;2.60;;;16.90;56.60;;;;;;5116318;28;20468;-71
2022/08/07 01:58:59;;;;;;;3.90;3.20;;;16.80;56.70;;;;;;5116287;28;20955;-71
2022/08/07 02:01:31;;;;;;;2.63;2.43;;;16.80;56.90;;;;;;5116304;28;20430;-71
2022/08/07 02:04:13;;;;;;;2.73;2.53;;;16.70;57.00;;;;;;5116409;28;20474;-71
2022/08/07 02:06:42;;;;;;;3.13;2.30;;;16.70;57.20;;;;;;5116091;28;20908;-71
2022/08/07 02:09:12;;;;;;;3.33;2.03;;;16.60;57.30;;;;;;5116214;28;20463;-71
2022/08/07 02:11:44;;;;;;;3.53;2.47;;;16.50;57.30;;;;;;5116228;28;20492;-71
2022/08/07 02:14:12;;;;;;;3.73;2.87;;;16.50;57.60;;;;;;5115939;28;20838;-71
2022/08/07 02:16:41;;;;;;;3.00;2.47;;;16.40;57.60;;;;;;5116288;28;20449;-71
2022/08/07 02:19:11;;;;;;;3.70;3.40;;;16.40;57.70;;;;;;5116325;28;20445;-71
2022/08/07 02:21:39;;;;;;;4.00;2.70;;;16.40;57.80;;;;;;5116300;28;20484;-71
2022/08/07 02:24:07;;;;;;;4.20;2.80;;;16.40;57.90;;;;;;5115820;28;21028;-71
2022/08/07 02:26:35;;;;;;;3.10;2.83;;;16.30;57.80;;;;;;5116011;28;20471;-71
2022/08/07 02:29:06;;;;;;;2.80;2.60;;;16.30;58.00;;;;;;5115709;28;20942;-71
2022/08/07 02:31:34;;;;;;;2.87;2.37;;;16.30;58.10;;;;;;5116001;28;20466;-71
2022/08/07 02:34:03;;;;;;;4.33;3.00;;;16.30;58.20;;;;;;5115485;28;20462;-71
2022/08/07 02:36:31;;;;;;;3.60;2.80;;;16.30;58.30;;;;;;5115484;28;20446;-71
2022/08/07 02:39:00;;;;;;;4.07;2.97;;;16.30;58.50;;;;;;5115498;28;20823;-71
2022/08/07 02:41:27;;;;;;;3.40;3.10;;;16.30;58.70;;;;;;5115741;28;20442;-71
2022/08/07 02:43:55;;;;;;;3.83;3.30;;;16.30;58.70;;;;;;5115868;28;20473;-71
2022/08/07 02:46:26;;;;;;;3.77;3.47;;;16.20;58.60;;;;;;5115830;28;20450;-71
2022/08/07 02:48:52;;;;;;;4.37;3.20;;;16.20;58.80;;;;;;5115436;28;20441;-71
2022/08/07 02:51:22;;;;;;;3.27;2.97;;;16.20;58.90;;;;;;5115589;28;20490;-71
2022/08/07 02:53:53;;;;;;;3.53;3.10;;;16.10;59.00;;;;;;5115339;28;20466;-71
2022/08/07 02:56:21;;;;;;;3.93;3.63;;;16.10;59.20;;;;;;5115425;28;20505;-71
2022/08/07 02:58:51;;;;;;;4.33;3.20;;;16.10;59.30;;;;;;5114991;28;20460;-71
2022/08/07 03:01:21;;;;;;;3.73;3.10;;;16.00;59.40;;;;;;5115303;28;20450;-71
2022/08/07 03:03:50;;;;;;;3.60;3.30;;;16.00;59.50;;;;;;5115654;28;20476;-71
2022/08/07 03:06:20;;;;;;;3.80;3.50;;;16.00;59.60;;;;;;5115261;28;20446;-71
2022/08/07 03:08:47;;;;;;;3.10;2.80;;;16.00;59.70;;;;;;5115160;28;20480;-71
2022/08/07 03:11:15;;;;;;;3.67;3.13;;;15.90;59.70;;;;;;5114742;28;21060;-71
2022/08/07 03:13:43;;;;;;;3.27;3.07;;;15.90;59.90;;;;;;5114675;28;20838;-71
2022/08/07 03:16:10;;;;;;;3.63;3.10;;;15.80;59.90;;;;;;5114710;28;20810;-71
2022/08/07 03:18:37;;;;;;;3.30;3.10;;;15.80;60.00;;;;;;5114475;28;20949;-71
2022/08/07 03:21:06;;;;;;;6.53;3.73;;;15.70;60.00;;;;;;5114608;28;20945;-71
2022/08/07 03:23:34;;;;;;;5.07;3.30;;;15.70;60.00;;;;;;5114843;28;20466;-71
2022/08/07 03:26:03;;;;;;;3.70;3.40;;;15.80;60.30;;;;;;5114824;28;20450;-71
2022/08/07 03:28:30;;;;;;;4.13;3.73;;;15.80;60.20;;;;;;5114780;28;20456;-71
2022/08/07 03:33:40;;;;;;;3.43;3.13;;;15.80;60.40;;;;;;5113719;28;20458;-71
2022/08/07 03:36:10;;;;;;;4.27;3.20;;;15.70;60.50;;;;;;5114693;28;20775;-71
2022/08/07 03:38:39;;;;;;;6.30;3.37;;;15.70;60.60;;;;;;5114821;28;20449;-71
2022/08/07 03:41:06;;;;;;;4.27;3.20;;;15.70;60.50;;;;;;5114613;28;20889;-71
2022/08/07 03:43:34;;;;;;;3.50;3.20;;;15.60;60.40;;;;;;5114461;28;20465;-71
2022/08/07 03:46:02;;;;;;;3.90;3.60;;;15.70;60.60;;;;;;5114565;28;20451;-71
2022/08/07 03:48:29;;;;;;;4.23;3.63;;;15.70;60.70;;;;;;5114080;28;20455;-71
2022/08/07 03:50:57;;;;;;;3.83;3.00;;;15.60;60.60;;;;;;5114605;28;20441;-71
2022/08/07 03:53:26;;;;;;;3.40;3.20;;;15.60;60.60;;;;;;5114030;28;20492;-71
2022/08/07 03:55:53;;;;;;;3.03;2.83;;;15.50;60.60;;;;;;5114707;28;20546;-71
2022/08/07 03:58:21;;;;;;;4.43;3.00;;;15.50;60.60;;;;;;5115154;28;20449;-71
2022/08/07 04:00:49;;;;;;;3.63;3.33;;;15.40;60.60;;;;;;5114881;28;20945;-71
2022/08/07 04:03:16;;;;;;;4.20;3.60;;;15.40;60.80;;;;;;5114384;28;20434;-71
2022/08/07 04:05:43;;;;;;;3.20;3.00;;;15.30;61.00;;;;;;5114612;28;20450;-71
2022/08/07 04:08:12;;;;;;;4.23;3.87;;;15.30;61.50;;;;;;5114591;28;20457;-71
2022/08/07 04:10:41;;;;;;;3.70;3.40;;;15.30;61.60;;;;;;5115081;28;20445;-71
2022/08/07 04:13:11;;;;;;;4.33;3.30;;;15.30;61.50;;;;;;5115293;28;20484;-71
2022/08/07 04:15:38;;;;;;;3.30;3.10;;;15.30;61.50;;;;;;5115936;28;20433;-71
2022/08/07 04:18:05;;;;;;;3.60;3.30;;;15.30;61.60;;;;;;5115777;28;20453;-71
2022/08/07 04:20:32;;;;;;;4.40;4.00;;;15.30;61.60;;;;;;5116244;28;20954;-71
2022/08/07 04:22:59;;;;;;;3.93;3.60;;;15.30;61.70;;;;;;5115326;28;20433;-71
2022/08/07 04:25:27;;;;;;;4.20;3.80;;;15.30;61.90;;;;;;5114579;28;20472;-71
2022/08/07 04:27:55;;;;;;;3.97;3.67;;;15.30;62.00;;;;;;5113950;28;20446;-71
2022/08/07 04:30:22;;;;;;;5.43;3.93;;;15.20;62.10;;;;;;5113961;28;20453;-71
2022/08/07 04:32:49;;;;;;;4.53;4.13;;;15.20;62.70;;;;;;5113807;28;20483;-71
2022/08/07 04:35:16;;;;;;;5.10;4.70;;;15.20;63.10;;;;;;5113815;28;20468;-71
2022/08/07 04:37:43;;;;;;;5.33;4.23;;;15.20;63.60;;;;;;5113832;28;20446;-71
2022/08/07 04:40:12;;;;;;;4.07;3.67;;;15.10;63.70;;;;;;5113820;28;20811;-71
2022/08/07 04:42:38;;;;;;;5.83;4.30;;;15.10;64.10;;;;;;5113837;28;20446;-71
2022/08/07 04:45:10;;;;;;;3.80;3.50;;;15.10;64.20;;;;;;5113723;28;20491;-71
2022/08/07 04:47:45;;;;;;;4.77;3.93;;;15.10;64.40;;;;;;5113843;28;20441;-71
2022/08/07 04:50:18;;;;;;;4.23;3.90;;;15.10;64.60;;;;;;5113786;28;20435;-71
2022/08/07 04:52:50;;;;;;;4.47;4.17;;;15.10;64.70;;;;;;5113828;28;20464;-71
2022/08/07 04:55:22;;;;;;;4.20;3.67;;;15.10;65.30;;;;;;5113401;28;20464;-71
2022/08/07 04:57:54;;;;;;;4.70;3.87;;;15.10;65.60;;;;;;5113863;28;20443;-71
2022/08/07 05:00:36;;;;;;;5.00;4.50;;;15.10;66.00;;;;;;5114722;28;20795;-71
2022/08/07 05:03:15;;;;;;;5.37;4.67;;;15.10;66.40;;;;;;5117774;28;20429;-71
2022/08/07 05:05:49;;;;;;;8.17;4.70;;;15.10;67.20;;;;;;5117683;28;20440;-71
2022/08/07 05:08:22;;;;;;;8.53;4.27;;;15.10;67.40;;;;;;5117680;28;20432;-71
2022/08/07 05:10:53;;;;;;;5.97;5.27;;;15.10;67.60;;;;;;5117569;28;20490;-71
2022/08/07 05:13:28;;;;;;;6.50;4.13;;;15.20;68.50;;;;;;5117446;28;20557;-71
2022/08/07 05:15:59;;;;;;;5.17;4.67;;;15.10;68.00;;;;;;5117585;28;20433;-71
2022/08/07 05:18:29;;;;;;;6.20;5.07;;;15.10;68.30;;;;;;5118161;28;20452;-71
2022/08/07 05:20:59;;;;;;;5.87;5.23;;;15.20;69.50;;;;;;5117991;28;20447;-71
2022/08/07 05:23:32;;;;;;;5.83;5.27;;;15.20;70.20;;;;;;5117937;28;20974;-71
2022/08/07 05:26:01;;;;;;;5.60;5.00;;;15.30;71.20;;;;;;5117232;28;20900;-71
2022/08/07 05:28:28;;;;;;;5.83;5.33;;;15.30;71.70;;;;;;5117213;28;20476;-71
2022/08/07 05:30:57;;;;;;;7.87;5.33;;;15.40;72.30;;;;;;5117264;28;20523;-70
2022/08/07 05:33:26;;;;;;;8.80;4.93;;;15.40;72.70;;;;;;5117125;28;20484;-70
2022/08/07 05:35:55;;;;;;;6.60;6.00;;;15.50;73.00;;;;;;5116902;28;20467;-70
2022/08/07 05:38:22;;;;;;;8.60;5.50;;;15.60;73.70;;;;;;5117157;28;20445;-70
2022/08/07 05:40:50;;;;;;;6.23;5.63;;;15.70;74.30;;;;;;5116747;28;20841;-70
2022/08/07 05:43:18;;;;;;;7.33;6.63;;;15.70;74.80;;;;;;5116863;28;20452;-69
2022/08/07 05:45:46;;;;;;;8.50;6.27;;;15.80;75.10;;;;;;5116893;28;20472;-69
2022/08/07 05:48:15;;;;;;;7.23;6.10;;;15.80;75.80;;;;;;5116815;28;20454;-70
2022/08/07 05:50:42;;;;;;;7.53;6.83;;;15.90;76.80;;;;;;5116746;28;20460;-70
2022/08/07 05:53:09;;;;;;;6.77;6.17;;;16.00;77.20;;;;;;5116163;28;21016;-69
2022/08/07 05:55:37;;;;;;;8.37;6.70;;;16.00;77.80;;;;;;5116323;28;20457;-70
2022/08/07 05:58:06;;;;;;;6.83;5.97;;;16.10;78.20;;;;;;5116560;28;20524;-70
2022/08/07 06:00:35;;;;;;;6.87;6.27;;;16.20;78.50;;;;;;5116585;28;20455;-70
2022/08/07 06:03:05;;;;;;;7.00;6.40;;;16.30;78.60;;;;;;5116262;28;20512;-70
2022/08/07 06:05:34;;;;;;;7.70;6.57;;;16.40;78.70;;;;;;5116425;28;20810;-70
2022/08/07 06:08:01;;;;;;;8.03;6.03;;;16.50;78.70;;;;;;5116396;28;20453;-70
2022/08/07 06:10:29;;;;;;;7.57;6.27;;;16.50;78.30;;;;;;5116056;28;20451;-70
2022/08/07 06:12:56;;;;;;;6.33;5.73;;;16.60;78.70;;;;;;5116202;28;20473;-70
2022/08/07 06:15:24;;;;;;;6.93;6.30;;;16.70;79.00;;;;;;5116234;28;20479;-70
2022/08/07 06:17:52;;;;;;;8.67;6.23;;;16.80;78.70;;;;;;5115852;28;20491;-70
2022/08/07 06:20:19;;;;;;;7.50;6.30;;;16.90;78.20;;;;;;5115830;28;20810;-70
2022/08/07 06:22:48;;;;;;;6.20;5.60;;;17.00;77.50;;;;;;5116303;28;20442;-70
2022/08/07 06:25:14;;;;;;;6.20;5.63;;;17.10;78.30;;;;;;5115666;28;21001;-70
2022/08/07 06:27:41;;;;;;;7.73;5.80;;;17.20;78.70;;;;;;5115987;28;20447;-70
2022/08/07 06:30:09;;;;;;;6.30;5.70;;;17.30;78.80;;;;;;5115945;28;20943;-70
2022/08/07 06:32:36;;;;;;;5.50;5.00;;;17.40;78.60;;;;;;5116339;28;20478;-70
2022/08/07 06:35:03;;;;;;;4.47;4.07;;;17.50;78.50;;;;;;5115511;28;20474;-70
2022/08/07 06:37:30;;;;;;;6.80;5.30;;;17.60;78.30;;;;;;5115928;28;20533;-70
2022/08/07 06:39:58;;;;;;;5.23;4.73;;;17.70;77.80;;;;;;5115781;28;20446;-70
2022/08/07 06:42:29;;;;;;;5.30;4.90;;;17.90;77.80;;;;;;5115702;28;20449;-70
2022/08/07 06:44:57;;;;;;;5.50;4.77;;;18.00;77.20;;;;;;5115766;28;20463;-70
2022/08/07 06:47:24;;;;;;;5.13;4.73;;;18.20;76.20;;;;;;5115668;28;20446;-70
2022/08/07 06:49:51;;;;;;;5.43;4.40;;;18.30;75.40;;;;;;5115377;28;20449;-70
2022/08/07 06:52:19;;;;;;;4.70;4.27;;;18.50;74.80;;;;;;5115205;28;20897;-70
2022/08/07 06:54:48;;;;;;;6.10;3.90;;;18.60;73.50;;;;;;5115113;28;20483;-70
2022/08/07 06:57:17;;;;;;;3.87;3.57;;;18.70;72.00;;;;;;5115521;28;20796;-70
2022/08/07 06:59:45;;;;;;;4.07;2.90;;;18.90;71.70;;;;;;5115102;28;20792;-70
2022/08/07 07:02:18;;;;;;;5.30;3.13;;;19.10;70.40;;;;;;5115403;28;20439;-70
2022/08/07 07:04:46;;;;;;;2.80;2.60;;;19.30;69.40;;;;;;5115044;28;21001;-70
2022/08/07 07:07:13;;;;;;;3.50;2.80;;;19.50;68.00;;;;;;5115348;28;20534;-70
2022/08/07 07:09:46;;;;;;;5.70;2.80;;;19.60;67.10;;;;;;5115063;28;20442;-70
2022/08/07 07:12:31;;;;;;;3.00;2.80;;;19.80;66.70;;;;;;5114921;28;20840;-70
2022/08/07 07:15:03;;;;;;;2.23;2.03;;;20.00;65.30;;;;;;5114816;28;20842;-70
2022/08/07 07:17:37;;;;;;;3.97;2.87;;;20.20;63.10;;;;;;5115096;28;20459;-70
2022/08/07 07:20:09;;;;;;;4.10;2.20;;;20.40;61.90;;;;;;5115410;28;20432;-70
2022/08/07 07:22:36;;;;;;;2.37;2.27;;;20.50;60.60;;;;;;5115444;28;20431;-70
2022/08/07 07:25:06;;;;;;;1.97;1.87;;;20.70;59.90;;;;;;5115791;28;20463;-70
2022/08/07 07:27:39;;;;;;;4.00;2.27;;;20.90;59.70;;;;;;5115733;28;20450;-70
2022/08/07 07:30:08;;;;;;;1.90;1.70;;;21.20;59.20;;;;;;5116531;28;20428;-71
2022/08/07 07:32:39;;;;;;;2.70;1.50;;;21.40;57.70;;;;;;5115620;27;20448;-71
2022/08/07 07:35:08;;;;;;;3.80;2.00;;;21.60;56.90;;;;;;5116596;28;20467;-70
2022/08/07 07:37:39;;;;;;;2.00;1.80;;;21.80;56.10;;;;;;5115054;28;20449;-71
2022/08/07 07:40:12;;;;;;;1.70;1.50;;;22.10;55.20;;;;;;5114963;28;20431;-70
2022/08/07 07:42:41;;;;;;;2.10;1.23;;;22.30;55.00;;;;;;5114845;28;20441;-70
2022/08/07 07:45:11;;;;;;;1.70;1.60;;;22.50;54.20;;;;;;5114540;28;20475;-70
2022/08/07 07:47:42;;;;;;;1.80;1.70;;;22.70;53.30;;;;;;5114725;28;20815;-70
2022/08/07 07:50:12;;;;;;;3.90;1.30;;;23.00;50.90;;;;;;5114725;28;20432;-70
2022/08/07 07:52:40;;;;;;;1.97;1.13;;;23.20;50.60;;;;;;5114406;28;20439;-70
2022/08/07 07:55:09;;;;;;;3.00;1.53;;;23.30;49.40;;;;;;5114436;28;20470;-70
2022/08/07 07:57:37;;;;;;;3.13;1.20;;;23.50;49.10;;;;;;5114327;28;20455;-70
2022/08/07 08:00:07;;;;;;;2.50;1.17;;;23.70;48.80;;;;;;5113958;28;20805;-70
2022/08/07 08:02:37;;;;;;;2.30;1.30;;;23.90;48.30;;;;;;5114291;28;20454;-70
2022/08/07 08:05:07;;;;;;;1.10;0.67;;;24.00;47.70;;;;;;5114284;28;20463;-70
2022/08/07 08:07:35;;;;;;;1.60;1.13;;;24.20;47.30;;;;;;5114308;28;20484;-70
2022/08/07 08:10:04;;;;;;;1.33;1.00;;;24.40;46.30;;;;;;5113876;28;20451;-70
2022/08/07 08:12:32;;;;;;;0.80;0.80;;;24.60;45.70;;;;;;5114146;28;20454;-70
2022/08/07 08:15:00;;;;;;;2.37;1.00;;;24.70;45.90;;;;;;5113974;28;20471;-70
2022/08/07 08:17:29;;;;;;;1.60;1.33;;;24.90;44.70;;;;;;5113802;28;20451;-70
2022/08/07 08:20:00;;;;;;;0.70;0.70;;;25.10;44.30;;;;;;5114048;28;20450;-70
2022/08/07 08:28:15;;;;;;;1.50;0.90;;;25.70;42.80;;;;;;5077229;28;20419;-70
2022/08/07 08:30:44;;;;;;;1.23;0.80;;;25.90;42.20;;;;;;5114002;28;20427;-70
2022/08/07 08:33:17;;;;;;;1.47;1.10;;;26.10;41.70;;;;;;5113458;28;20478;-70
2022/08/07 08:35:47;;;;;;;0.70;0.70;;;26.20;41.20;;;;;;5117569;28;20994;-70
2022/08/07 08:38:16;;;;;;;1.03;0.93;;;26.40;40.50;;;;;;5118191;28;20811;-70
2022/08/07 08:40:49;;;;;;;1.13;0.80;;;26.70;40.00;;;;;;5118127;28;20526;-70
2022/08/07 08:43:20;;;;;;;1.43;0.60;;;26.90;39.00;;;;;;5118101;28;20497;-70
2022/08/07 08:45:53;;;;;;;1.77;1.00;;;27.10;38.70;;;;;;5118131;28;20435;-70
2022/08/07 08:48:30;;;;;;;2.63;0.90;;;27.20;38.20;;;;;;5117744;28;20922;-70
2022/08/07 08:51:02;;;;;;;2.07;1.00;;;27.40;38.20;;;;;;5118026;28;20476;-70
2022/08/07 08:53:36;;;;;;;1.10;1.00;;;27.60;37.40;;;;;;5118392;28;20487;-70
2022/08/07 08:56:08;;;;;;;1.33;0.97;;;27.60;37.20;;;;;;5117952;28;20474;-70
2022/08/07 08:58:43;;;;;;;1.07;1.00;;;27.80;37.10;;;;;;5117852;28;20435;-70
2022/08/07 09:01:14;;;;;;;1.50;1.10;;;27.80;35.80;;;;;;5117579;28;20784;-70
2022/08/07 09:03:50;;;;;;;2.83;1.00;;;27.90;35.10;;;;;;5118304;28;20466;-70
2022/08/07 09:06:25;;;;;;;1.23;1.00;;;27.90;36.30;;;;;;5118079;28;20441;-70
2022/08/07 09:08:57;;;;;;;1.10;1.00;;;28.10;36.10;;;;;;5117644;28;20427;-70
2022/08/07 09:11:34;;;;;;;0.87;0.87;;;28.30;35.70;;;;;;5117646;28;20436;-70
2022/08/07 09:14:07;;;;;;;0.80;0.70;;;28.50;35.10;;;;;;5117420;28;20493;-70
2022/08/07 09:16:44;;;;;;;0.67;0.60;;;28.70;33.70;;;;;;5117177;28;20935;-70
2022/08/07 09:19:21;;;;;;;0.70;0.70;;;28.90;34.40;;;;;;5117390;28;20519;-70
2022/08/07 09:21:53;;;;;;;1.20;0.50;;;29.20;33.70;;;;;;5117435;28;20434;-69
2022/08/07 09:24:34;;;;;;;2.87;0.70;;;29.50;33.60;;;;;;5117306;28;20469;-68
2022/08/07 09:27:15;;;;;;;1.03;0.60;;;29.80;32.90;;;;;;5117251;28;20423;-68
2022/08/07 09:29:54;;;;;;;0.60;0.40;;;30.10;32.40;;;;;;5117300;28;20427;-68
2022/08/07 09:32:31;;;;;;;1.17;0.40;;;30.40;31.90;;;;;;5117305;28;20427;-69
2022/08/07 09:35:06;;;;;;;0.50;0.30;;;30.60;30.20;;;;;;5116958;28;20493;-69
2022/08/07 09:37:39;;;;;;;1.63;0.60;;;30.90;29.80;;;;;;5117093;28;20431;-69
2022/08/07 09:40:16;;;;;;;0.87;0.60;;;31.00;28.70;;;;;;5117098;28;20465;-68
2022/08/07 09:42:52;;;;;;;2.43;0.77;;;31.20;29.20;;;;;;5117019;28;20437;-68
2022/08/07 09:45:30;;;;;;;0.90;0.47;;;31.40;28.40;;;;;;5116491;28;20466;-68
2022/08/07 09:48:16;;;;;;;1.20;0.50;;;31.50;28.80;;;;;;5116842;28;20430;-68
2022/08/07 09:51:03;;;;;;;0.60;0.50;;;31.80;29.00;;;;;;5116462;28;20830;-68
2022/08/07 09:53:37;;;;;;;1.33;0.50;;;32.00;28.80;;;;;;5116696;28;20481;-69
2022/08/07 09:56:44;;;;;;;0.50;0.50;;;32.30;28.00;;;;;;5116715;28;20431;-69
2022/08/07 09:59:29;;;;;;;0.97;0.80;;;32.70;27.00;;;;;;5116302;28;20957;-70
2022/08/07 10:02:14;;;;;;;1.10;0.43;;;32.90;27.10;;;;;;5116669;28;20427;-69
2022/08/07 10:05:02;;;;;;;4.00;0.90;;;33.30;27.20;;;;;;5116444;28;20469;-69
2022/08/07 10:07:48;;;;;;;2.40;0.83;;;33.60;26.50;;;;;;5116189;28;20926;-69
2022/08/07 10:10:37;;;;;;;2.20;0.60;;;33.90;25.90;;;;;;5116412;28;20438;-70
2022/08/07 10:13:32;;;;;;;1.13;1.00;;;34.20;24.30;;;;;;5116453;28;20469;-69
2022/08/07 10:16:09;;;;;;;2.00;0.80;;;34.40;23.90;;;;;;5116165;28;20911;-69
2022/08/07 10:18:48;;;;;;;1.17;1.07;;;34.50;24.50;;;;;;5116061;28;20473;-69
2022/08/07 10:21:26;;;;;;;1.13;1.00;;;34.60;24.00;;;;;;5116433;28;20431;-69
2022/08/07 10:24:10;;;;;;;3.40;1.10;;;34.60;23.70;;;;;;5116454;28;20467;-69
2022/08/07 10:26:48;;;;;;;1.03;0.83;;;34.80;24.10;;;;;;5116058;28;20931;-69
2022/08/07 10:29:40;;;;;;;1.90;0.90;;;35.20;23.40;;;;;;5116290;28;20441;-69
2022/08/07 10:32:33;;;;;;;1.00;0.70;;;35.70;23.40;;;;;;5116527;28;20439;-69
2022/08/07 10:35:10;;;;;;;1.90;0.90;;;36.30;23.20;;;;;;5116552;28;20493;-68
2022/08/07 10:37:52;;;;;;;3.43;1.07;;;36.80;23.00;;;;;;5117163;28;20279;-69
2022/08/07 10:40:25;;;;;;;1.10;0.60;;;37.30;21.90;;;;;;5117261;28;20412;-68
2022/08/07 10:43:00;;;;;;;3.70;0.93;;;37.80;20.20;;;;;;5118768;28;20191;-68
2022/08/07 10:45:35;;;;;;;1.15;0.60;;;37.90;20.40;;;;;;5118151;28;20718;-68
2022/08/07 10:48:14;;;;;;;1.60;0.70;;;38.00;20.10;;;;;;5117680;28;20203;-69
2022/08/07 10:50:47;;;;;;;3.75;0.65;;;38.40;20.00;;;;;;5116696;28;20185;-68
2022/08/07 10:53:23;;;;;;;0.77;0.57;;;38.80;19.50;;;;;;5115596;28;20192;-68
2022/08/07 10:56:02;;;;;;;0.60;0.40;;;38.90;18.60;;;;;;5115623;28;20204;-68
2022/08/07 10:58:46;;;;;;;1.00;0.65;;;39.00;18.20;;;;;;5114565;28;20185;-68
2022/08/07 11:01:36;;;;;;;0.93;0.50;;;39.20;18.10;;;;;;5115547;28;20246;-68
2022/08/07 11:04:10;;;;;;;1.50;0.60;;;39.70;18.00;;;;;;5115366;28;20213;-69
2022/08/07 11:06:44;;;;;;;2.83;1.10;;;40.20;17.70;;;;;;5115449;28;20192;-68
2022/08/07 11:09:18;;;;;;;0.98;0.57;;;40.80;17.00;;;;;;5115345;28;20195;-69
2022/08/07 11:11:54;;;;;;;1.42;0.70;;;41.40;16.80;;;;;;5115314;28;20193;-69
2022/08/07 11:14:26;;;;;;;0.80;0.50;;;41.80;16.50;;;;;;5114799;28;20273;-69
2022/08/07 11:16:58;;;;;;;2.20;1.00;;;42.30;16.10;;;;;;5114927;28;20181;-69
2022/08/07 11:19:30;;;;;;;1.23;0.85;;;42.70;15.80;;;;;;5115339;28;20276;-69
2022/08/07 11:22:07;;;;;;;1.40;0.60;;;43.10;15.20;;;;;;5114954;28;20649;-69
2022/08/07 11:24:41;;;;;;;0.90;0.60;;;43.30;14.90;;;;;;5114705;28;20220;-69
2022/08/07 11:27:16;;;;;;;0.63;0.50;;;43.30;15.20;;;;;;5114760;28;20185;-69
2022/08/07 11:29:52;;;;;;;1.20;0.52;;;43.30;14.90;;;;;;5115044;28;20204;-69
2022/08/07 11:32:28;;;;;;;4.10;0.50;;;43.70;15.00;;;;;;5115002;28;20275;-69
2022/08/07 11:34:58;;;;;;;1.50;0.50;;;44.10;14.40;;;;;;5116964;28;20224;-69
2022/08/07 11:37:37;;;;;;;1.60;0.60;;;44.50;14.30;;;;;;5132714;28;20195;-69
2022/08/07 11:40:15;;;;;;;1.58;0.50;;;44.80;13.80;;;;;;5133808;28;20185;-69
2022/08/07 11:42:54;;;;;;;1.25;0.30;;;44.90;13.70;;;;;;5115058;28;20184;-69
2022/08/07 11:45:30;;;;;;;1.17;0.68;;;45.30;14.00;;;;;;5114633;28;20248;-69
2022/08/07 11:48:16;;;;;;;1.40;0.47;;;45.60;14.00;;;;;;5114407;28;20633;-69
2022/08/07 11:50:53;;;;;;;1.73;0.70;;;45.90;14.00;;;;;;5114559;28;20188;-69
2022/08/07 11:53:27;;;;;;;3.30;0.60;;;46.00;13.10;;;;;;5114975;28;20197;-69
2022/08/07 11:56:10;;;;;;;1.23;0.60;;;46.00;13.20;;;;;;5115308;28;20213;-70
2022/08/07 11:58:56;;;;;;;1.65;0.40;;;45.80;12.70;;;;;;5115067;28;20234;-70
2022/08/07 12:01:38;;;;;;;1.33;0.50;;;45.40;13.60;;;;;;5115385;28;20185;-71
2022/08/07 12:04:24;;;;;;;1.52;0.47;;;45.00;13.40;;;;;;5115052;28;20213;-70
2022/08/07 12:06:56;;;;;;;1.08;0.60;;;45.00;12.80;;;;;;5114696;28;20192;-71
2022/08/07 12:09:31;;;;;;;1.63;0.50;;;45.30;13.80;;;;;;5114441;28;20185;-71
2022/08/07 12:12:05;;;;;;;1.38;0.40;;;45.70;13.30;;;;;;5114615;28;20192;-71
2022/08/07 12:14:44;;;;;;;0.98;0.60;;;46.20;13.00;;;;;;5114218;28;20227;-71
2022/08/07 12:17:12;;;;;;;6.43;0.75;;;46.60;12.40;;;;;;5114116;28;20214;-71
2022/08/07 12:19:49;;;;;;;3.65;1.08;;;46.80;12.40;;;;;;5114377;28;20200;-71
2022/08/07 12:22:23;;;;;;;3.30;0.90;;;46.90;12.20;;;;;;5114413;28;20271;-71
2022/08/07 12:27:56;;;;;;;2.92;1.13;;;47.30;12.20;;;;;;5114605;28;20643;-71
2022/08/07 12:30:29;;;;;;;1.70;1.13;;;47.60;12.20;;;;;;5115151;28;20181;-71
2022/08/07 12:33:01;;;;;;;2.00;1.08;;;47.60;11.90;;;;;;5114835;28;20192;-71
2022/08/07 12:35:30;;;;;;;2.17;1.30;;;47.60;11.50;;;;;;5114455;28;20225;-70
2022/08/07 12:37:59;;;;;;;3.90;1.30;;;47.80;11.60;;;;;;5114421;28;20201;-71
2022/08/07 12:40:29;;;;;;;4.10;1.20;;;47.70;11.00;;;;;;5114297;28;20295;-71
2022/08/07 12:43:00;;;;;;;1.17;1.00;;;47.50;11.10;;;;;;5113983;28;20187;-71
2022/08/07 12:45:35;;;;;;;1.52;1.23;;;47.40;11.40;;;;;;5113908;28;20595;-71
2022/08/07 12:48:07;;;;;;;1.75;1.27;;;47.30;11.10;;;;;;5114326;28;20192;-71
2022/08/07 12:50:37;;;;;;;1.52;1.00;;;47.30;11.60;;;;;;5114178;28;20185;-71
2022/08/07 12:53:11;;;;;;;1.73;1.23;;;47.40;11.90;;;;;;5114923;28;20200;-71
2022/08/07 12:55:43;;;;;;;1.52;0.90;;;47.80;11.90;;;;;;5114059;28;20547;-71
2022/08/07 12:58:15;;;;;;;2.53;1.10;;;48.20;11.60;;;;;;5113800;28;20641;-71
2022/08/07 13:00:53;;;;;;;1.42;1.05;;;48.40;10.80;;;;;;5113555;28;20182;-71
2022/08/07 13:03:35;;;;;;;2.97;1.10;;;48.50;11.40;;;;;;5114049;28;20207;-71
2022/08/07 13:06:14;;;;;;;1.17;0.93;;;48.80;11.30;;;;;;5113987;28;20188;-71
2022/08/07 13:08:54;;;;;;;1.88;1.27;;;49.00;10.40;;;;;;5114123;28;20193;-72
2022/08/07 13:11:37;;;;;;;1.17;0.90;;;49.00;11.10;;;;;;5113760;28;20188;-71
2022/08/07 13:14:18;;;;;;;1.48;1.27;;;49.00;10.30;;;;;;5113511;28;20263;-71
2022/08/07 13:16:52;;;;;;;1.15;0.80;;;48.90;10.80;;;;;;5113997;28;20185;-71
2022/08/07 13:19:26;;;;;;;3.05;1.10;;;49.10;10.80;;;;;;5114205;28;20196;-71
2022/08/07 13:22:01;;;;;;;1.10;0.80;;;49.40;10.50;;;;;;5115864;28;20665;-71